Time;durP1;ratioP1;P1;durP2;ratioP2;P2;SDS_P1;SDS_P2;PMS_P1;PMS_P2;Temp;Humidity;BMP_temperature;BMP_pressure;BME280_temperature;BME280_humidity;BME280_pressure;Samples;Min_cycle;Max_cycle;Signal;HPM_P1;HPM_P2
2022/10/27 00:02:14;;;;;;;;;;;;;;;;;;5114050;28;19927;-51
2022/10/27 00:04:40;;;;;;;;;;;;;;;;;;5114278;28;19969;-51
2022/10/27 00:07:07;;;;;;;;;;;;;;;;;;5114421;28;19923;-51
2022/10/27 00:09:33;;;;;;;;;;;;;;;;;;5115039;28;19924;-55
2022/10/27 00:12:00;;;;;;;;;;;;;;;;;;5115096;28;19924;-50
2022/10/27 00:14:26;;;;;;;;;;;;;;;;;;5085581;22;19932;-78
2022/10/27 00:16:55;;;;;;;;;;;;;;;;;;5062318;28;19928;-77
2022/10/27 00:19:22;;;;;;;;;;;;;;;;;;5062801;28;19925;-77
2022/10/27 00:21:50;;;;;;;;;;;;;;;;;;5063322;28;19924;-78
2022/10/27 00:24:17;;;;;;;;;;;;;;;;;;5059790;28;19968;-77
2022/10/27 00:26:43;;;;;;;;;;;;;;;;;;5059601;28;19976;-78
2022/10/27 00:29:10;;;;;;;;;;;;;;;;;;5063003;28;20655;-77
2022/10/27 00:31:37;;;;;;;;;;;;;;;;;;5054472;28;19925;-78
2022/10/27 00:34:04;;;;;;;;;;;;;;;;;;5054907;28;20455;-78
2022/10/27 00:36:31;;;;;;;;;;;;;;;;;;5056272;28;20023;-78
2022/10/27 00:38:58;;;;;;;;;;;;;;;;;;5056050;28;19975;-79
2022/10/27 00:41:26;;;;;;;;;;;;;;;;;;5057389;28;19925;-78
2022/10/27 00:43:53;;;;;;;;;;;;;;;;;;5057008;28;20018;-77
2022/10/27 00:46:22;;;;;;;;;;;;;;;;;;5063751;28;19936;-77
2022/10/27 00:48:49;;;;;;;;;;;;;;;;;;5067067;28;20168;-77
2022/10/27 00:51:18;;;;;;;;;;;;;;;;;;5060008;28;19936;-77
2022/10/27 00:53:45;;;;;;;;;;;;;;;;;;5059610;28;20008;-76
2022/10/27 00:56:11;;;;;;;;;;;;;;;;;;5055860;28;19972;-77
2022/10/27 00:58:38;;;;;;;;;;;;;;;;;;5059317;28;20016;-77
2022/10/27 01:01:05;;;;;;;;;;;;;;;;;;5058395;28;20019;-77
2022/10/27 01:03:32;;;;;;;;;;;;;;;;;;5065997;28;19986;-77
2022/10/27 01:05:59;;;;;;;;;;;;;;;;;;5076341;28;20011;-77
2022/10/27 01:08:27;;;;;;;;;;;;;;;;;;5076307;28;20007;-77
2022/10/27 01:10:53;;;;;;;;;;;;;;;;;;5076923;28;19964;-77
2022/10/27 01:13:20;;;;;;;;;;;;;;;;;;5082238;28;19924;-77
2022/10/27 01:15:51;;;;;;;;;;;;;;;;;;5088995;28;19928;-77
2022/10/27 01:18:21;;;;;;;;;;;;;;;;;;5089278;28;19924;-77
2022/10/27 01:21:06;;;;;;;;;;;;;;;;;;5087518;28;20400;-77
2022/10/27 01:23:38;;;;;;;;;;;;;;;;;;5086651;28;19924;-77
2022/10/27 01:26:32;;;;;;;;;;;;;;;;;;5089330;28;20299;-77
2022/10/27 01:29:27;;;;;;;;;;;;;;;;;;5086872;28;19970;-77
2022/10/27 01:31:59;;;;;;;;;;;;;;;;;;5081126;28;20662;-77
2022/10/27 01:34:29;;;;;;;;;;;;;;;;;;5074738;28;19924;-77
2022/10/27 01:37:01;;;;;;;;;;;;;;;;;;5074977;28;20355;-77
2022/10/27 01:39:30;;;;;;;;;;;;;;;;;;5075712;28;19967;-78
2022/10/27 01:41:58;;;;;;;;;;;;;;;;;;5074979;28;19956;-79
2022/10/27 01:44:27;;;;;;;;;;;;;;;;;;5073082;28;19925;-77
2022/10/27 01:46:56;;;;;;;;;;;;;;;;;;5073409;28;19979;-77
2022/10/27 01:49:23;;;;;;;;;;;;;;;;;;5078768;28;20475;-77
2022/10/27 01:51:50;;;;;;;;;;;;;;;;;;5090419;28;19947;-77
2022/10/27 01:54:16;;;;;;;;;;;;;;;;;;5091250;28;19928;-77
2022/10/27 01:56:59;;;;;;;;;;;;;;;;;;5082220;28;19931;-77
2022/10/27 01:59:31;;;;;;;;;;;;;;;;;;5078352;28;19968;-77
2022/10/27 02:02:05;;;;;;;;;;;;;;;;;;5077583;28;19935;-78
2022/10/27 02:04:34;;;;;;;;;;;;;;;;;;5059067;28;19988;-78
2022/10/27 02:07:04;;;;;;;;;;;;;;;;;;5057348;28;19967;-78
2022/10/27 02:09:35;;;;;;;;;;;;;;;;;;5057162;28;20368;-78
2022/10/27 02:12:03;;;;;;;;;;;;;;;;;;5057453;28;19924;-78
2022/10/27 02:14:30;;;;;;;;;;;;;;;;;;5056367;28;19931;-79
2022/10/27 02:16:57;;;;;;;;;;;;;;;;;;5057003;28;20015;-77
2022/10/27 02:19:27;;;;;;;;;;;;;;;;;;5056813;28;20388;-78
2022/10/27 02:21:56;;;;;;;;;;;;;;;;;;5057373;28;19935;-77
2022/10/27 02:24:22;;;;;;;;;;;;;;;;;;5056993;28;19967;-80
2022/10/27 02:26:51;;;;;;;;;;;;;;;;;;5057022;28;19964;-78
2022/10/27 02:29:20;;;;;;;;;;;;;;;;;;5056774;28;20026;-78
2022/10/27 02:31:48;;;;;;;;;;;;;;;;;;5057322;28;19925;-78
2022/10/27 02:34:15;;;;;;;;;;;;;;;;;;5056673;28;19988;-78
2022/10/27 02:36:43;;;;;;;;;;;;;;;;;;5056832;28;20395;-77
2022/10/27 02:39:09;;;;;;;;;;;;;;;;;;5056531;28;20380;-78
2022/10/27 02:41:36;;;;;;;;;;;;;;;;;;5056530;28;19924;-77
2022/10/27 02:44:02;;;;;;;;;;;;;;;;;;5056053;28;20012;-78
2022/10/27 02:46:29;;;;;;;;;;;;;;;;;;5055961;28;20403;-77
2022/10/27 02:48:55;;;;;;;;;;;;;;;;;;5055562;28;19928;-78
2022/10/27 02:51:22;;;;;;;;;;;;;;;;;;5057617;28;19925;-78
2022/10/27 02:53:49;;;;;;;;;;;;;;;;;;5056800;28;19972;-79
2022/10/27 02:56:16;;;;;;;;;;;;;;;;;;5057069;28;19944;-78
2022/10/27 02:58:42;;;;;;;;;;;;;;;;;;5056809;28;19971;-78
2022/10/27 03:01:09;;;;;;;;;;;;;;;;;;5056512;28;20472;-78
2022/10/27 03:03:35;;;;;;;;;;;;;;;;;;5066935;28;19935;-78
2022/10/27 03:06:02;;;;;;;;;;;;;;;;;;5076502;28;20470;-78
2022/10/27 03:08:28;;;;;;;;;;;;;;;;;;5076371;28;20555;-77
2022/10/27 03:10:56;;;;;;;;;;;;;;;;;;5076572;28;20483;-78
2022/10/27 03:13:22;;;;;;;;;;;;;;;;;;5076065;28;20082;-77
2022/10/27 03:15:49;;;;;;;;;;;;;;;;;;5076116;28;19960;-78
2022/10/27 03:18:15;;;;;;;;;;;;;;;;;;5075926;28;19928;-78
2022/10/27 03:20:42;;;;;;;;;;;;;;;;;;5075458;28;20007;-78
2022/10/27 03:23:08;;;;;;;;;;;;;;;;;;5075426;28;19931;-77
2022/10/27 03:25:39;;;;;;;;;;;;;;;;;;5075479;28;19976;-78
2022/10/27 03:28:07;;;;;;;;;;;;;;;;;;5075395;28;19932;-77
2022/10/27 03:30:33;;;;;;;;;;;;;;;;;;5075460;28;20363;-78
2022/10/27 03:33:00;;;;;;;;;;;;;;;;;;5075390;28;20073;-78
2022/10/27 03:35:26;;;;;;;;;;;;;;;;;;5074939;28;20402;-77
2022/10/27 03:37:55;;;;;;;;;;;;;;;;;;5075465;28;19972;-78
2022/10/27 03:40:21;;;;;;;;;;;;;;;;;;5076101;28;20299;-78
2022/10/27 03:42:47;;;;;;;;;;;;;;;;;;5075587;28;20077;-78
2022/10/27 03:45:15;;;;;;;;;;;;;;;;;;5075635;28;20004;-78
2022/10/27 03:47:42;;;;;;;;;;;;;;;;;;5075794;28;19931;-78
2022/10/27 03:50:09;;;;;;;;;;;;;;;;;;5075086;28;20045;-78
2022/10/27 03:52:35;;;;;;;;;;;;;;;;;;5075488;28;19982;-78
2022/10/27 03:55:01;;;;;;;;;;;;;;;;;;5074908;28;20014;-78
2022/10/27 03:57:28;;;;;;;;;;;;;;;;;;5076590;28;20019;-78
2022/10/27 03:59:54;;;;;;;;;;;;;;;;;;5077897;28;20099;-78
2022/10/27 04:02:22;;;;;;;;;;;;;;;;;;5075731;28;19974;-78
2022/10/27 04:04:49;;;;;;;;;;;;;;;;;;5057243;28;20410;-78
2022/10/27 04:07:15;;;;;;;;;;;;;;;;;;5057457;28;19974;-79
2022/10/27 04:09:41;;;;;;;;;;;;;;;;;;5057311;28;19925;-79
2022/10/27 04:12:08;;;;;;;;;;;;;;;;;;5057098;28;19964;-79
2022/10/27 04:14:34;;;;;;;;;;;;;;;;;;5056264;28;19991;-79
2022/10/27 04:17:01;;;;;;;;;;;;;;;;;;5055260;28;19986;-79
2022/10/27 04:19:29;;;;;;;;;;;;;;;;;;5054733;28;20358;-78
2022/10/27 04:21:55;;;;;;;;;;;;;;;;;;5054758;28;20035;-78
2022/10/27 04:24:22;;;;;;;;;;;;;;;;;;5055000;28;20410;-77
2022/10/27 04:26:48;;;;;;;;;;;;;;;;;;5054927;28;19972;-78
2022/10/27 04:29:15;;;;;;;;;;;;;;;;;;5055353;28;20379;-78
2022/10/27 04:31:41;;;;;;;;;;;;;;;;;;5056172;28;19924;-78
2022/10/27 04:34:08;;;;;;;;;;;;;;;;;;5055887;28;19925;-78
2022/10/27 04:36:35;;;;;;;;;;;;;;;;;;5055127;28;20380;-78
2022/10/27 04:39:02;;;;;;;;;;;;;;;;;;5054817;28;19971;-78
2022/10/27 04:41:28;;;;;;;;;;;;;;;;;;5059480;28;19956;-77
2022/10/27 04:43:55;;;;;;;;;;;;;;;;;;5070863;28;19925;-77
2022/10/27 04:46:21;;;;;;;;;;;;;;;;;;5070900;28;20418;-77
2022/10/27 04:48:48;;;;;;;;;;;;;;;;;;5068656;28;19932;-77
2022/10/27 04:51:14;;;;;;;;;;;;;;;;;;5065942;28;19955;-78
2022/10/27 04:53:42;;;;;;;;;;;;;;;;;;5056476;28;20359;-78
2022/10/27 04:56:09;;;;;;;;;;;;;;;;;;5056252;28;19967;-78
2022/10/27 04:58:35;;;;;;;;;;;;;;;;;;5058066;28;19972;-78
2022/10/27 05:01:05;;;;;;;;;;;;;;;;;;5056064;28;19967;-78
2022/10/27 05:03:32;;;;;;;;;;;;;;;;;;5065726;28;19931;-78
2022/10/27 05:05:58;;;;;;;;;;;;;;;;;;5078547;28;19928;-78
2022/10/27 05:08:25;;;;;;;;;;;;;;;;;;5077890;28;20366;-78
2022/10/27 05:10:53;;;;;;;;;;;;;;;;;;5076455;28;19992;-78
2022/10/27 05:13:19;;;;;;;;;;;;;;;;;;5074741;28;19924;-78
2022/10/27 05:15:46;;;;;;;;;;;;;;;;;;5075863;28;19931;-78
2022/10/27 05:18:12;;;;;;;;;;;;;;;;;;5080440;28;19959;-77
2022/10/27 05:20:39;;;;;;;;;;;;;;;;;;5087589;28;19979;-77
2022/10/27 05:23:05;;;;;;;;;;;;;;;;;;5090038;28;19925;-77
2022/10/27 05:25:32;;;;;;;;;;;;;;;;;;5087744;28;19956;-77
2022/10/27 05:28:03;;;;;;;;;;;;;;;;;;5087416;28;19951;-77
2022/10/27 05:30:30;;;;;;;;;;;;;;;;;;5089312;28;19928;-77
2022/10/27 05:32:56;;;;;;;;;;;;;;;;;;5090474;28;19951;-77
2022/10/27 05:35:23;;;;;;;;;;;;;;;;;;5089774;28;19959;-77
2022/10/27 05:37:49;;;;;;;;;;;;;;;;;;5088243;28;19967;-77
2022/10/27 05:40:16;;;;;;;;;;;;;;;;;;5078174;28;19928;-77
2022/10/27 05:42:48;;;;;;;;;;;;;;;;;;5074016;28;19924;-76
2022/10/27 05:45:20;;;;;;;;;;;;;;;;;;5073872;28;19978;-77
2022/10/27 05:47:47;;;;;;;;;;;;;;;;;;5072390;28;19963;-77
2022/10/27 05:50:13;;;;;;;;;;;;;;;;;;5072185;28;19947;-77
2022/10/27 05:52:40;;;;;;;;;;;;;;;;;;5072063;28;20019;-76
2022/10/27 05:55:06;;;;;;;;;;;;;;;;;;5072522;28;19931;-76
2022/10/27 05:57:33;;;;;;;;;;;;;;;;;;5072079;28;19929;-76
2022/10/27 05:59:59;;;;;;;;;;;;;;;;;;5072714;28;19946;-78
2022/10/27 06:02:27;;;;;;;;;;;;;;;;;;5071907;28;19970;-77
2022/10/27 06:04:54;;;;;;;;;;;;;;;;;;5072065;28;20015;-78
2022/10/27 06:07:20;;;;;;;;;;;;;;;;;;5071938;28;19978;-77
2022/10/27 06:09:46;;;;;;;;;;;;;;;;;;5073051;28;19931;-76
2022/10/27 06:12:13;;;;;;;;;;;;;;;;;;5071752;28;20283;-77
2022/10/27 06:14:39;;;;;;;;;;;;;;;;;;5071799;28;19956;-77
2022/10/27 06:17:06;;;;;;;;;;;;;;;;;;5071862;28;19990;-78
2022/10/27 06:19:34;;;;;;;;;;;;;;;;;;5071872;28;20309;-78
2022/10/27 06:22:00;;;;;;;;;;;;;;;;;;5071750;28;19924;-77
2022/10/27 06:24:27;;;;;;;;;;;;;;;;;;5072301;28;19978;-77
2022/10/27 06:26:53;;;;;;;;;;;;;;;;;;5071561;28;19924;-77
2022/10/27 06:29:19;;;;;;;;;;;;;;;;;;5072189;28;20001;-76
2022/10/27 06:31:46;;;;;;;;;;;;;;;;;;5071934;28;19963;-77
2022/10/27 06:34:12;;;;;;;;;;;;;;;;;;5093863;28;19951;-77
2022/10/27 06:36:40;;;;;;;;;;;;;;;;;;5088451;28;20315;-77
2022/10/27 06:39:06;;;;;;;;;;;;;;;;;;5072202;28;19931;-77
2022/10/27 06:41:33;;;;;;;;;;;;;;;;;;5073195;28;19939;-76
2022/10/27 06:43:59;;;;;;;;;;;;;;;;;;5074969;28;20003;-77
2022/10/27 06:46:26;;;;;;;;;;;;;;;;;;5075589;28;19924;-77
2022/10/27 06:48:52;;;;;;;;;;;;;;;;;;5075312;28;19964;-77
2022/10/27 06:51:19;;;;;;;;;;;;;;;;;;5075329;28;19928;-77
2022/10/27 06:53:47;;;;;;;;;;;;;;;;;;5075380;28;20408;-77
2022/10/27 06:56:13;;;;;;;;;;;;;;;;;;5075099;28;19924;-78
2022/10/27 06:58:40;;;;;;;;;;;;;;;;;;5075191;28;19924;-78
2022/10/27 07:01:06;;;;;;;;;;;;;;;;;;5074927;28;20427;-77
2022/10/27 07:03:34;;;;;;;;;;;;;;;;;;5075038;28;19924;-78
2022/10/27 07:06:00;;;;;;;;;;;;;;;;;;5074445;28;19982;-78
2022/10/27 07:08:27;;;;;;;;;;;;;;;;;;5056993;28;19972;-77
2022/10/27 07:10:55;;;;;;;;;;;;;;;;;;5053628;28;19932;-77
2022/10/27 07:13:22;;;;;;;;;;;;;;;;;;5053343;28;20387;-77
2022/10/27 07:15:48;;;;;;;;;;;;;;;;;;5053432;28;19925;-77
2022/10/27 07:18:15;;;;;;;;;;;;;;;;;;5053477;28;20392;-76
2022/10/27 07:20:41;;;;;;;;;;;;;;;;;;5052008;28;20414;-77
2022/10/27 07:23:09;;;;;;;;;;;;;;;;;;5052246;28;20451;-77
2022/10/27 07:25:35;;;;;;;;;;;;;;;;;;5052920;28;19935;-77
2022/10/27 07:28:05;;;;;;;;;;;;;;;;;;5052756;28;19929;-80
2022/10/27 07:30:32;;;;;;;;;;;;;;;;;;5053232;28;20133;-77
2022/10/27 07:32:59;;;;;;;;;;;;;;;;;;5054133;28;20008;-77
2022/10/27 07:35:26;;;;;;;;;;;;;;;;;;5055136;28;19971;-76
2022/10/27 07:37:53;;;;;;;;;;;;;;;;;;5054455;28;20706;-77
2022/10/27 07:40:20;;;;;;;;;;;;;;;;;;5059694;28;19983;-78
2022/10/27 07:42:47;;;;;;;;;;;;;;;;;;5057420;28;19989;-77
2022/10/27 07:45:16;;;;;;;;;;;;;;;;;;5056589;28;20346;-79
2022/10/27 07:47:43;;;;;;;;;;;;;;;;;;5058365;28;19937;-80
2022/10/27 07:50:09;;;;;;;;;;;;;;;;;;5053196;28;20552;-77
2022/10/27 07:52:37;;;;;;;;;;;;;;;;;;5052011;28;19975;-77
2022/10/27 07:55:03;;;;;;;;;;;;;;;;;;5052323;28;20023;-78
2022/10/27 07:57:30;;;;;;;;;;;;;;;;;;5053195;28;20418;-77
2022/10/27 07:59:56;;;;;;;;;;;;;;;;;;5052664;28;19968;-77
2022/10/27 08:02:24;;;;;;;;;;;;;;;;;;5052176;28;20016;-77
2022/10/27 08:04:51;;;;;;;;;;;;;;;;;;5052174;28;19925;-78
2022/10/27 08:07:17;;;;;;;;;;;;;;;;;;5051990;28;20467;-78
2022/10/27 08:09:44;;;;;;;;;;;;;;;;;;5052083;28;20019;-77
2022/10/27 08:12:10;;;;;;;;;;;;;;;;;;5051639;28;20008;-77
2022/10/27 08:14:36;;;;;;;;;;;;;;;;;;5051758;28;20379;-77
2022/10/27 08:17:03;;;;;;;;;;;;;;;;;;5052073;28;19960;-77
2022/10/27 08:19:31;;;;;;;;;;;;;;;;;;5051443;28;20020;-77
2022/10/27 08:21:57;;;;;;;;;;;;;;;;;;5051319;28;19924;-78
2022/10/27 08:24:24;;;;;;;;;;;;;;;;;;5051575;28;20603;-77
2022/10/27 08:26:50;;;;;;;;;;;;;;;;;;5051973;28;19947;-78
2022/10/27 08:29:16;;;;;;;;;;;;;;;;;;5051741;28;19924;-77
2022/10/27 08:31:43;;;;;;;;;;;;;;;;;;5051683;28;19972;-77
2022/10/27 08:34:09;;;;;;;;;;;;;;;;;;5050997;28;19931;-77
2022/10/27 08:36:38;;;;;;;;;;;;;;;;;;5051168;28;19925;-77
2022/10/27 08:39:05;;;;;;;;;;;;;;;;;;5051056;28;19932;-77
2022/10/27 08:41:36;;;;;;;;;;;;;;;;;;5051228;28;19979;-76
2022/10/27 08:44:10;;;;;;;;;;;;;;;;;;5050869;28;19979;-77
2022/10/27 08:46:39;;;;;;;;;;;;;;;;;;5051265;28;19924;-78
2022/10/27 08:49:06;;;;;;;;;;;;;;;;;;5050718;28;20056;-76
2022/10/27 08:51:35;;;;;;;;;;;;;;;;;;5050686;28;19925;-76
2022/10/27 08:54:04;;;;;;;;;;;;;;;;;;5050965;28;19964;-76
2022/10/27 08:56:34;;;;;;;;;;;;;;;;;;5050556;28;20013;-77
2022/10/27 08:59:02;;;;;;;;;;;;;;;;;;5050357;28;19925;-77
2022/10/27 09:01:31;;;;;;;;;;;;;;;;;;5050854;28;19978;-77
2022/10/27 09:04:05;;;;;;;;;;;;;;;;;;5063620;28;19925;-77
2022/10/27 09:06:33;;;;;;;;;;;;;;;;;;5070776;28;19971;-77
2022/10/27 09:09:03;;;;;;;;;;;;;;;;;;5070623;28;19931;-76
2022/10/27 09:11:38;;;;;;;;;;;;;;;;;;5070947;28;19924;-76
2022/10/27 09:14:13;;;;;;;;;;;;;;;;;;5070249;28;19970;-77
2022/10/27 09:16:42;;;;;;;;;;;;;;;;;;5070463;28;19972;-76
2022/10/27 09:19:12;;;;;;;;;;;;;;;;;;5070249;28;19956;-77
2022/10/27 09:21:41;;;;;;;;;;;;;;;;;;5071178;28;19924;-78
2022/10/27 09:24:11;;;;;;;;;;;;;;;;;;5073833;28;19924;-78
2022/10/27 09:26:41;;;;;;;;;;;;;;;;;;5070444;28;20200;-77
2022/10/27 09:29:13;;;;;;;;;;;;;;;;;;5070611;28;19925;-78
2022/10/27 09:31:41;;;;;;;;;;;;;;;;;;5070915;28;19979;-78
2022/10/27 09:34:14;;;;;;;;;;;;;;;;;;5071194;28;19924;-78
2022/10/27 09:36:40;;;;;;;;;;;;;;;;;;5072360;28;19924;-77
2022/10/27 09:39:08;;;;;;;;;;;;;;;;;;5071742;28;19924;-78
2022/10/27 09:41:34;;;;;;;;;;;;;;;;;;5070338;28;20730;-77
2022/10/27 09:44:03;;;;;;;;;;;;;;;;;;5070699;28;20410;-78
2022/10/27 09:46:30;;;;;;;;;;;;;;;;;;5071518;28;20011;-78
2022/10/27 09:48:58;;;;;;;;;;;;;;;;;;5069120;28;20015;-77
2022/10/27 09:51:26;;;;;;;;;;;;;;;;;;5061585;28;19925;-77
2022/10/27 09:53:53;;;;;;;;;;;;;;;;;;5058452;28;20043;-76
2022/10/27 09:56:24;;;;;;;;;;;;;;;;;;5064189;28;19967;-78
2022/10/27 09:58:56;;;;;;;;;;;;;;;;;;5058484;28;20610;-78
2022/10/27 10:01:25;;;;;;;;;;;;;;;;;;5050870;28;20004;-78
2022/10/27 10:03:55;;;;;;;;;;;;;;;;;;5063152;28;19931;-78
2022/10/27 10:06:25;;;;;;;;;;;;;;;;;;5070492;28;20370;-78
2022/10/27 10:08:52;;;;;;;;;;;;;;;;;;5070713;28;20299;-78
2022/10/27 10:11:19;;;;;;;;;;;;;;;;;;5071147;28;20395;-77
2022/10/27 10:13:56;;;;;;;;;;;;;;;;;;5070214;28;20381;-78
2022/10/27 10:16:24;;;;;;;;;;;;;;;;;;5076090;28;19928;-78
2022/10/27 10:19:00;;;;;;;;;;;;;;;;;;5079141;28;19924;-77
2022/10/27 10:21:28;;;;;;;;;;;;;;;;;;5078436;28;19963;-78
2022/10/27 10:23:56;;;;;;;;;;;;;;;;;;5077314;28;19925;-78
2022/10/27 10:26:24;;;;;;;;;;;;;;;;;;5077031;28;19968;-78
2022/10/27 10:28:53;;;;;;;;;;;;;;;;;;5076785;28;19932;-79
2022/10/27 10:31:23;;;;;;;;;;;;;;;;;;5076682;28;19924;-75
2022/10/27 10:33:51;;;;;;;;;;;;;;;;;;5074202;28;20016;-77
2022/10/27 10:36:19;;;;;;;;;;;;;;;;;;5069481;28;20012;-77
2022/10/27 10:38:50;;;;;;;;;;;;;;;;;;5060302;28;19924;-76
2022/10/27 10:41:19;;;;;;;;;;;;;;;;;;5064104;28;19964;-76
2022/10/27 10:43:45;;;;;;;;;;;;;;;;;;5076346;28;19971;-76
2022/10/27 10:46:20;;;;;;;;;;;;;;;;;;5074188;28;19972;-78
2022/10/27 10:48:49;;;;;;;;;;;;;;;;;;5074771;28;20019;-77
2022/10/27 10:51:25;;;;;;;;;;;;;;;;;;5077086;28;20418;-77
2022/10/27 10:53:53;;;;;;;;;;;;;;;;;;5081618;28;19971;-77
2022/10/27 10:56:21;;;;;;;;;;;;;;;;;;5079448;28;19986;-78
2022/10/27 10:58:48;;;;;;;;;;;;;;;;;;5078505;28;20014;-76
2022/10/27 11:01:16;;;;;;;;;;;;;;;;;;5076768;28;20003;-77
2022/10/27 11:03:44;;;;;;;;;;;;;;;;;;5063135;28;20016;-78
2022/10/27 11:06:16;;;;;;;;;;;;;;;;;;5053767;28;20431;-77
2022/10/27 11:08:51;;;;;;;;;;;;;;;;;;5053627;28;19968;-77
2022/10/27 11:11:19;;;;;;;;;;;;;;;;;;5053912;28;20411;-77
2022/10/27 11:13:47;;;;;;;;;;;;;;;;;;5053191;28;20011;-76
2022/10/27 11:16:14;;;;;;;;;;;;;;;;;;5052923;28;19929;-77
2022/10/27 11:18:46;;;;;;;;;;;;;;;;;;5052479;28;19967;-75
2022/10/27 11:21:15;;;;;;;;;;;;;;;;;;5055745;28;19979;-77
2022/10/27 11:23:44;;;;;;;;;;;;;;;;;;5052665;28;19960;-78
2022/10/27 11:26:13;;;;;;;;;;;;;;;;;;5053112;28;19924;-78
2022/10/27 11:28:50;;;;;;;;;;;;;;;;;;5052370;28;19960;-77
2022/10/27 11:31:20;;;;;;;;;;;;;;;;;;5052906;28;19987;-76
2022/10/27 11:33:51;;;;;;;;;;;;;;;;;;5053508;28;19924;-79
2022/10/27 11:36:19;;;;;;;;;;;;;;;;;;5054146;28;20357;-81
2022/10/27 11:38:54;;;;;;;;;;;;;;;;;;5054877;28;20008;-77
2022/10/27 11:41:25;;;;;;;;;;;;;;;;;;5055759;28;19925;-77
2022/10/27 11:43:55;;;;;;;;;;;;;;;;;;5058785;28;20464;-77
2022/10/27 11:46:25;;;;;;;;;;;;;;;;;;5058937;28;20020;-78
2022/10/27 11:48:54;;;;;;;;;;;;;;;;;;5059082;28;19925;-76
2022/10/27 11:51:23;;;;;;;;;;;;;;;;;;5066437;28;19964;-77
2022/10/27 11:53:50;;;;;;;;;;;;;;;;;;5066005;28;20003;-79
2022/10/27 11:56:23;;;;;;;;;;;;;;;;;;5063549;28;19935;-77
2022/10/27 11:58:55;;;;;;;;;;;;;;;;;;5063372;28;20011;-79
2022/10/27 12:01:29;;;;;;;;;;;;;;;;;;5065131;28;20533;-79
2022/10/27 12:04:03;;;;;;;;;;;;;;;;;;5062521;28;20003;-78
2022/10/27 12:06:33;;;;;;;;;;;;;;;;;;5059282;28;19924;-79
2022/10/27 12:09:04;;;;;;;;;;;;;;;;;;5071200;28;19925;-79
2022/10/27 12:11:39;;;;;;;;;;;;;;;;;;5074248;28;19929;-79
2022/10/27 12:14:10;;;;;;;;;;;;;;;;;;5068389;28;20409;-79
2022/10/27 12:16:39;;;;;;;;;;;;;;;;;;5035220;28;19925;-79
2022/10/27 12:19:08;;;;;;;;;;;;;;;;;;5035837;28;19975;-79
2022/10/27 12:21:40;;;;;;;;;;;;;;;;;;5035695;28;19956;-78
2022/10/27 12:24:10;;;;;;;;;;;;;;;;;;5035014;28;20347;-79
2022/10/27 12:26:39;;;;;;;;;;;;;;;;;;5035944;28;19968;-79
2022/10/27 12:29:07;;;;;;;;;;;;;;;;;;5035390;28;19975;-78
2022/10/27 12:31:36;;;;;;;;;;;;;;;;;;5039773;28;19932;-78
2022/10/27 12:34:06;;;;;;;;;;;;;;;;;;5037226;28;19956;-79
2022/10/27 12:36:38;;;;;;;;;;;;;;;;;;5035227;28;19935;-79
2022/10/27 12:39:08;;;;;;;;;;;;;;;;;;5034969;28;19926;-79
2022/10/27 12:41:38;;;;;;;;;;;;;;;;;;5037315;28;19925;-79
2022/10/27 12:44:13;;;;;;;;;;;;;;;;;;5054643;28;20434;-78
2022/10/27 12:46:50;;;;;;;;;;;;;;;;;;5052939;28;19947;-78
2022/10/27 12:49:22;;;;;;;;;;;;;;;;;;5033304;28;20427;-78
2022/10/27 12:51:52;;;;;;;;;;;;;;;;;;5033179;28;19979;-78
2022/10/27 12:54:24;;;;;;;;;;;;;;;;;;5032845;28;19925;-78
2022/10/27 12:56:55;;;;;;;;;;;;;;;;;;5032912;28;19971;-77
2022/10/27 12:59:29;;;;;;;;;;;;;;;;;;5034209;28;20008;-79
2022/10/27 13:01:57;;;;;;;;;;;;;;;;;;5035423;28;20019;-79
2022/10/27 13:04:50;;;;;;;;;;;;;;;;;;5068797;28;20373;-80
2022/10/27 13:07:26;;;;;;;;;;;;;;;;;;5075593;28;20279;-79
2022/10/27 13:10:01;;;;;;;;;;;;;;;;;;5075148;28;19935;-79
2022/10/27 13:12:38;;;;;;;;;;;;;;;;;;5074877;28;19924;-78
2022/10/27 13:15:23;;;;;;;;;;;;;;;;;;5070754;28;20028;-80
2022/10/27 13:17:53;;;;;;;;;;;;;;;;;;5054402;28;19928;-80
2022/10/27 13:20:26;;;;;;;;;;;;;;;;;;5054414;28;20019;-79
2022/10/27 13:22:54;;;;;;;;;;;;;;;;;;5054495;28;20331;-79
2022/10/27 13:25:23;;;;;;;;;;;;;;;;;;5054387;28;20035;-79
2022/10/27 13:27:53;;;;;;;;;;;;;;;;;;5053770;28;19924;-79
2022/10/27 13:30:20;;;;;;;;;;;;;;;;;;5070672;28;19932;-79
2022/10/27 13:32:54;;;;;;;;;;;;;;;;;;5073925;28;20143;-78
2022/10/27 13:35:40;;;;;;;;;;;;;;;;;;5074275;28;20384;-79
2022/10/27 13:38:21;;;;;;;;;;;;;;;;;;5074288;28;20689;-79
2022/10/27 13:40:47;;;;;;;;;;;;;;;;;;5073969;28;19978;-79
2022/10/27 13:43:47;;;;;;;;;;;;;;;;;;5074035;28;19968;-81
2022/10/27 13:46:13;;;;;;;;;;;;;;;;;;5075410;28;19924;-80
2022/10/27 13:48:48;;;;;;;;;;;;;;;;;;5073838;28;20392;-78
2022/10/27 13:51:33;;;;;;;;;;;;;;;;;;5076194;28;19925;-79
2022/10/27 13:53:59;;;;;;;;;;;;;;;;;;5078264;28;19978;-79
2022/10/27 13:56:39;;;;;;;;;;;;;;;;;;5077800;28;20053;-79
2022/10/27 13:59:12;;;;;;;;;;;;;;;;;;5076434;28;19925;-78
2022/10/27 14:01:42;;;;;;;;;;;;;;;;;;5079114;28;19925;-78
2022/10/27 14:04:24;;;;;;;;;;;;;;;;;;5066266;28;19947;-79
2022/10/27 14:06:57;;;;;;;;;;;;;;;;;;5060454;28;20307;-78
2022/10/27 14:09:28;;;;;;;;;;;;;;;;;;5060029;28;19925;-78
2022/10/27 14:11:56;;;;;;;;;;;;;;;;;;5058749;28;19932;-78
2022/10/27 14:14:24;;;;;;;;;;;;;;;;;;5059156;28;19924;-77
2022/10/27 14:16:51;;;;;;;;;;;;;;;;;;5057992;28;20015;-78
2022/10/27 14:19:19;;;;;;;;;;;;;;;;;;5056296;28;20419;-78
2022/10/27 14:21:47;;;;;;;;;;;;;;;;;;5055486;28;20682;-78
2022/10/27 14:24:19;;;;;;;;;;;;;;;;;;5054655;28;20510;-78
2022/10/27 14:26:45;;;;;;;;;;;;;;;;;;5057197;28;20396;-79
2022/10/27 14:29:19;;;;;;;;;;;;;;;;;;5057429;28;20392;-78
2022/10/27 14:31:45;;;;;;;;;;;;;;;;;;5057465;28;19931;-79
2022/10/27 14:34:17;;;;;;;;;;;;;;;;;;5058355;28;19925;-79
2022/10/27 14:36:43;;;;;;;;;;;;;;;;;;5057759;28;19924;-80
2022/10/27 14:39:23;;;;;;;;;;;;;;;;;;5057169;28;19925;-79
2022/10/27 14:41:50;;;;;;;;;;;;;;;;;;5055612;28;20376;-78
2022/10/27 14:44:17;;;;;;;;;;;;;;;;;;5055619;28;19972;-78
2022/10/27 14:46:45;;;;;;;;;;;;;;;;;;5055608;28;19982;-80
2022/10/27 14:49:15;;;;;;;;;;;;;;;;;;5059539;28;19979;-77
2022/10/27 14:51:42;;;;;;;;;;;;;;;;;;5061802;28;19974;-77
2022/10/27 14:54:08;;;;;;;;;;;;;;;;;;5057752;28;19924;-76
2022/10/27 14:56:36;;;;;;;;;;;;;;;;;;5058464;28;20427;-77
2022/10/27 14:59:04;;;;;;;;;;;;;;;;;;5055831;28;19925;-77
2022/10/27 15:01:31;;;;;;;;;;;;;;;;;;5055176;28;20414;-77
2022/10/27 15:03:58;;;;;;;;;;;;;;;;;;5060369;28;19968;-79
2022/10/27 15:06:26;;;;;;;;;;;;;;;;;;5063305;28;19928;-77
2022/10/27 15:08:53;;;;;;;;;;;;;;;;;;5063841;28;19925;-78
2022/10/27 15:11:20;;;;;;;;;;;;;;;;;;5065255;28;19971;-77
2022/10/27 15:13:49;;;;;;;;;;;;;;;;;;5060260;28;20072;-77
2022/10/27 15:16:17;;;;;;;;;;;;;;;;;;5062227;28;20450;-77
2022/10/27 15:18:44;;;;;;;;;;;;;;;;;;5061911;28;19967;-77
2022/10/27 15:21:11;;;;;;;;;;;;;;;;;;5062447;28;19932;-78
2022/10/27 15:23:38;;;;;;;;;;;;;;;;;;5056535;28;19975;-78
2022/10/27 15:26:05;;;;;;;;;;;;;;;;;;5056485;28;19925;-77
2022/10/27 15:28:33;;;;;;;;;;;;;;;;;;5055965;28;19929;-78
2022/10/27 15:31:01;;;;;;;;;;;;;;;;;;5055675;28;19929;-78
2022/10/27 15:33:37;;;;;;;;;;;;;;;;;;5054935;28;19979;-78
2022/10/27 15:36:11;;;;;;;;;;;;;;;;;;5053358;28;20442;-76
2022/10/27 15:38:38;;;;;;;;;;;;;;;;;;5052694;28;19932;-77
2022/10/27 15:41:09;;;;;;;;;;;;;;;;;;5053582;28;19925;-77
2022/10/27 15:43:35;;;;;;;;;;;;;;;;;;5054209;28;19931;-76
2022/10/27 15:46:09;;;;;;;;;;;;;;;;;;5053003;28;20556;-77
2022/10/27 15:48:36;;;;;;;;;;;;;;;;;;5057665;28;19968;-78
2022/10/27 15:51:05;;;;;;;;;;;;;;;;;;5058615;28;20015;-77
2022/10/27 15:53:32;;;;;;;;;;;;;;;;;;5061192;28;19924;-79
2022/10/27 15:55:59;;;;;;;;;;;;;;;;;;5061649;28;19928;-78
2022/10/27 15:58:30;;;;;;;;;;;;;;;;;;5058225;28;20011;-76
2022/10/27 16:01:01;;;;;;;;;;;;;;;;;;5061319;28;19947;-79
2022/10/27 16:03:30;;;;;;;;;;;;;;;;;;5062986;28;19925;-78
2022/10/27 16:06:17;;;;;;;;;;;;;;;;;;5064643;28;19924;-79
2022/10/27 16:08:44;;;;;;;;;;;;;;;;;;5055984;28;19947;-79
2022/10/27 16:11:12;;;;;;;;;;;;;;;;;;5057346;28;19925;-79
2022/10/27 16:13:39;;;;;;;;;;;;;;;;;;5055654;28;19936;-78
2022/10/27 16:16:07;;;;;;;;;;;;;;;;;;5056280;28;19964;-79
2022/10/27 16:18:35;;;;;;;;;;;;;;;;;;5056509;28;19980;-79
2022/10/27 16:21:01;;;;;;;;;;;;;;;;;;5055113;28;20370;-80
2022/10/27 16:23:28;;;;;;;;;;;;;;;;;;5055017;28;20011;-79
2022/10/27 16:25:54;;;;;;;;;;;;;;;;;;5054636;28;19976;-80
2022/10/27 16:28:22;;;;;;;;;;;;;;;;;;5055340;28;19979;-79
2022/10/27 16:30:49;;;;;;;;;;;;;;;;;;5058637;28;19968;-79
2022/10/27 16:33:17;;;;;;;;;;;;;;;;;;5061485;28;19979;-78
2022/10/27 16:35:44;;;;;;;;;;;;;;;;;;5062323;28;19975;-78
2022/10/27 16:38:11;;;;;;;;;;;;;;;;;;5059052;28;19940;-78
2022/10/27 16:40:38;;;;;;;;;;;;;;;;;;5055052;28;20281;-79
2022/10/27 16:43:04;;;;;;;;;;;;;;;;;;5054882;28;19925;-79
2022/10/27 16:45:31;;;;;;;;;;;;;;;;;;5054744;28;19975;-79
2022/10/27 16:47:59;;;;;;;;;;;;;;;;;;5054583;28;20450;-79
2022/10/27 16:50:25;;;;;;;;;;;;;;;;;;5054476;28;20380;-79
2022/10/27 16:52:54;;;;;;;;;;;;;;;;;;5054161;28;19971;-79
2022/10/27 16:55:20;;;;;;;;;;;;;;;;;;5054435;28;19993;-79
2022/10/27 16:57:47;;;;;;;;;;;;;;;;;;5054303;28;20392;-79